sensor_id;sensor_type;location;lat;lon;timestamp;temperature;humidity
33247;DHT22;19606;50.108;19.804;2022-12-10T00:00:19;1.30;99.90
33247;DHT22;19606;50.108;19.804;2022-12-10T00:02:45;1.20;99.90
33247;DHT22;19606;50.108;19.804;2022-12-10T00:05:11;1.60;99.90
33247;DHT22;19606;50.108;19.804;2022-12-10T00:07:36;1.70;99.90
33247;DHT22;19606;50.108;19.804;2022-12-10T00:10:02;2.20;99.90
33247;DHT22;19606;50.108;19.804;2022-12-10T00:12:28;1.20;99.90
33247;DHT22;19606;50.108;19.804;2022-12-10T00:14:54;1.40;99.90
33247;DHT22;19606;50.108;19.804;2022-12-10T00:17:19;1.70;99.90
33247;DHT22;19606;50.108;19.804;2022-12-10T00:19:45;1.40;99.90
33247;DHT22;19606;50.108;19.804;2022-12-10T00:22:10;2.10;99.90
33247;DHT22;19606;50.108;19.804;2022-12-10T00:24:36;1.40;99.90
33247;DHT22;19606;50.108;19.804;2022-12-10T00:27:02;1.70;99.90
33247;DHT22;19606;50.108;19.804;2022-12-10T00:29:27;1.30;99.90
33247;DHT22;19606;50.108;19.804;2022-12-10T00:31:53;1.40;99.90
33247;DHT22;19606;50.108;19.804;2022-12-10T00:34:19;1.30;99.90
33247;DHT22;19606;50.108;19.804;2022-12-10T00:36:47;1.40;99.90
33247;DHT22;19606;50.108;19.804;2022-12-10T00:39:16;1.60;99.90
33247;DHT22;19606;50.108;19.804;2022-12-10T00:41:42;1.40;99.90
33247;DHT22;19606;50.108;19.804;2022-12-10T00:44:08;1.70;99.90
33247;DHT22;19606;50.108;19.804;2022-12-10T00:46:34;1.40;99.90
33247;DHT22;19606;50.108;19.804;2022-12-10T00:49:00;1.30;99.90
33247;DHT22;19606;50.108;19.804;2022-12-10T00:51:26;1.30;99.90
33247;DHT22;19606;50.108;19.804;2022-12-10T00:53:55;1.50;99.90
33247;DHT22;19606;50.108;19.804;2022-12-10T00:56:24;2.20;99.90
33247;DHT22;19606;50.108;19.804;2022-12-10T00:58:51;1.20;99.90
33247;DHT22;19606;50.108;19.804;2022-12-10T01:03:49;1.20;99.90
33247;DHT22;19606;50.108;19.804;2022-12-10T01:06:22;1.40;99.90
33247;DHT22;19606;50.108;19.804;2022-12-10T01:08:49;2.00;99.90
33247;DHT22;19606;50.108;19.804;2022-12-10T01:11:16;1.40;99.90
33247;DHT22;19606;50.108;19.804;2022-12-10T01:13:43;1.20;99.90
33247;DHT22;19606;50.108;19.804;2022-12-10T01:16:11;1.40;99.90
33247;DHT22;19606;50.108;19.804;2022-12-10T01:18:37;1.70;99.90
33247;DHT22;19606;50.108;19.804;2022-12-10T01:21:05;1.30;99.90
33247;DHT22;19606;50.108;19.804;2022-12-10T01:23:33;1.30;99.90
33247;DHT22;19606;50.108;19.804;2022-12-10T01:26:04;1.20;99.90
33247;DHT22;19606;50.108;19.804;2022-12-10T01:28:32;2.00;99.90
33247;DHT22;19606;50.108;19.804;2022-12-10T01:31:07;2.20;99.90
33247;DHT22;19606;50.108;19.804;2022-12-10T01:33:35;1.20;99.90
33247;DHT22;19606;50.108;19.804;2022-12-10T01:36:07;1.80;99.90
33247;DHT22;19606;50.108;19.804;2022-12-10T01:38:33;1.00;99.90
33247;DHT22;19606;50.108;19.804;2022-12-10T01:41:00;1.50;99.90
33247;DHT22;19606;50.108;19.804;2022-12-10T01:43:26;1.20;99.90
33247;DHT22;19606;50.108;19.804;2022-12-10T01:45:52;2.20;99.90
33247;DHT22;19606;50.108;19.804;2022-12-10T01:48:19;1.20;99.90
33247;DHT22;19606;50.108;19.804;2022-12-10T01:50:44;2.00;99.90
33247;DHT22;19606;50.108;19.804;2022-12-10T01:53:12;1.60;99.90
33247;DHT22;19606;50.108;19.804;2022-12-10T01:55:48;1.20;99.90
33247;DHT22;19606;50.108;19.804;2022-12-10T01:58:19;1.00;99.90
33247;DHT22;19606;50.108;19.804;2022-12-10T02:20:15;1.20;99.90
33247;DHT22;19606;50.108;19.804;2022-12-10T02:22:58;1.20;99.90
33247;DHT22;19606;50.108;19.804;2022-12-10T02:25:43;1.30;99.90
33247;DHT22;19606;50.108;19.804;2022-12-10T02:30:42;1.10;99.90
33247;DHT22;19606;50.108;19.804;2022-12-10T02:33:09;1.20;99.90
33247;DHT22;19606;50.108;19.804;2022-12-10T02:35:36;1.40;99.90
33247;DHT22;19606;50.108;19.804;2022-12-10T02:38:14;1.20;99.90
33247;DHT22;19606;50.108;19.804;2022-12-10T02:40:45;1.00;99.90
33247;DHT22;19606;50.108;19.804;2022-12-10T02:43:12;1.90;99.90
33247;DHT22;19606;50.108;19.804;2022-12-10T02:45:41;1.70;99.90
33247;DHT22;19606;50.108;19.804;2022-12-10T02:48:09;1.10;99.90
33247;DHT22;19606;50.108;19.804;2022-12-10T02:50:36;1.10;99.90
33247;DHT22;19606;50.108;19.804;2022-12-10T02:53:01;1.50;99.90
33247;DHT22;19606;50.108;19.804;2022-12-10T02:55:31;1.20;99.90
33247;DHT22;19606;50.108;19.804;2022-12-10T02:58:24;1.70;99.90
33247;DHT22;19606;50.108;19.804;2022-12-10T03:01:06;1.10;99.90
33247;DHT22;19606;50.108;19.804;2022-12-10T03:04:01;1.40;99.90
33247;DHT22;19606;50.108;19.804;2022-12-10T03:06:39;1.20;99.90
33247;DHT22;19606;50.108;19.804;2022-12-10T03:09:17;1.30;99.90
33247;DHT22;19606;50.108;19.804;2022-12-10T03:11:44;1.40;99.90
33247;DHT22;19606;50.108;19.804;2022-12-10T03:14:25;1.20;99.90
33247;DHT22;19606;50.108;19.804;2022-12-10T03:16:58;1.60;99.90
33247;DHT22;19606;50.108;19.804;2022-12-10T03:19:36;1.30;99.90
33247;DHT22;19606;50.108;19.804;2022-12-10T03:22:03;1.30;99.90
33247;DHT22;19606;50.108;19.804;2022-12-10T03:24:30;1.30;99.90
33247;DHT22;19606;50.108;19.804;2022-12-10T03:26:58;1.50;99.90
33247;DHT22;19606;50.108;19.804;2022-12-10T03:29:27;1.30;99.90
33247;DHT22;19606;50.108;19.804;2022-12-10T03:31:55;1.40;99.90
33247;DHT22;19606;50.108;19.804;2022-12-10T03:34:21;1.10;99.90
33247;DHT22;19606;50.108;19.804;2022-12-10T03:36:47;1.30;99.90
33247;DHT22;19606;50.108;19.804;2022-12-10T03:39:14;1.30;99.90
33247;DHT22;19606;50.108;19.804;2022-12-10T03:41:40;1.30;99.90
33247;DHT22;19606;50.108;19.804;2022-12-10T03:44:09;1.30;99.90
33247;DHT22;19606;50.108;19.804;2022-12-10T03:46:34;1.30;99.90
33247;DHT22;19606;50.108;19.804;2022-12-10T03:49:01;1.30;99.90
33247;DHT22;19606;50.108;19.804;2022-12-10T03:51:27;1.80;99.90
33247;DHT22;19606;50.108;19.804;2022-12-10T03:53:53;1.20;99.90
33247;DHT22;19606;50.108;19.804;2022-12-10T03:56:19;1.00;99.90
33247;DHT22;19606;50.108;19.804;2022-12-10T03:58:45;0.70;99.90
33247;DHT22;19606;50.108;19.804;2022-12-10T04:01:11;1.20;99.90
33247;DHT22;19606;50.108;19.804;2022-12-10T04:03:41;1.20;99.90
33247;DHT22;19606;50.108;19.804;2022-12-10T04:06:12;1.50;99.90
33247;DHT22;19606;50.108;19.804;2022-12-10T04:08:38;1.50;99.90
33247;DHT22;19606;50.108;19.804;2022-12-10T04:11:05;2.60;99.90
33247;DHT22;19606;50.108;19.804;2022-12-10T04:13:33;1.00;99.90
33247;DHT22;19606;50.108;19.804;2022-12-10T04:16:17;1.30;99.90
33247;DHT22;19606;50.108;19.804;2022-12-10T04:18:53;1.00;99.90
33247;DHT22;19606;50.108;19.804;2022-12-10T04:21:19;1.20;99.90
33247;DHT22;19606;50.108;19.804;2022-12-10T04:24:04;1.30;99.90
33247;DHT22;19606;50.108;19.804;2022-12-10T04:26:48;1.10;99.90
33247;DHT22;19606;50.108;19.804;2022-12-10T04:29:27;1.20;99.90
33247;DHT22;19606;50.108;19.804;2022-12-10T04:31:53;1.10;99.90
33247;DHT22;19606;50.108;19.804;2022-12-10T04:34:20;1.30;99.90
33247;DHT22;19606;50.108;19.804;2022-12-10T04:36:46;1.40;99.90
33247;DHT22;19606;50.108;19.804;2022-12-10T04:39:12;1.20;99.90
33247;DHT22;19606;50.108;19.804;2022-12-10T04:41:40;1.20;99.90
33247;DHT22;19606;50.108;19.804;2022-12-10T04:44:07;1.50;99.90
33247;DHT22;19606;50.108;19.804;2022-12-10T04:46:33;1.50;99.90
33247;DHT22;19606;50.108;19.804;2022-12-10T04:48:58;1.30;99.90
33247;DHT22;19606;50.108;19.804;2022-12-10T04:51:24;1.10;99.90
33247;DHT22;19606;50.108;19.804;2022-12-10T04:53:51;1.40;99.90
33247;DHT22;19606;50.108;19.804;2022-12-10T04:56:17;1.30;99.90
33247;DHT22;19606;50.108;19.804;2022-12-10T04:58:42;1.10;99.90
33247;DHT22;19606;50.108;19.804;2022-12-10T05:01:09;1.30;99.90
33247;DHT22;19606;50.108;19.804;2022-12-10T05:03:37;2.00;99.90
33247;DHT22;19606;50.108;19.804;2022-12-10T05:06:04;1.20;99.90
33247;DHT22;19606;50.108;19.804;2022-12-10T05:08:30;1.00;99.90
33247;DHT22;19606;50.108;19.804;2022-12-10T05:11:01;1.10;99.90
33247;DHT22;19606;50.108;19.804;2022-12-10T05:13:27;1.20;99.90
33247;DHT22;19606;50.108;19.804;2022-12-10T05:15:53;1.50;99.90
33247;DHT22;19606;50.108;19.804;2022-12-10T05:18:19;1.20;99.90
33247;DHT22;19606;50.108;19.804;2022-12-10T05:20:44;1.00;99.90
33247;DHT22;19606;50.108;19.804;2022-12-10T05:23:10;2.20;99.90
33247;DHT22;19606;50.108;19.804;2022-12-10T05:26:16;1.40;99.90
33247;DHT22;19606;50.108;19.804;2022-12-10T05:28:48;1.00;99.90
33247;DHT22;19606;50.108;19.804;2022-12-10T05:31:19;1.00;99.90
33247;DHT22;19606;50.108;19.804;2022-12-10T05:33:47;1.40;99.90
33247;DHT22;19606;50.108;19.804;2022-12-10T05:36:14;1.90;99.90
33247;DHT22;19606;50.108;19.804;2022-12-10T05:38:41;1.10;99.90
33247;DHT22;19606;50.108;19.804;2022-12-10T05:41:13;0.90;99.90
33247;DHT22;19606;50.108;19.804;2022-12-10T05:43:38;1.00;99.90
33247;DHT22;19606;50.108;19.804;2022-12-10T05:46:07;2.10;99.90
33247;DHT22;19606;50.108;19.804;2022-12-10T05:48:33;1.30;99.90
33247;DHT22;19606;50.108;19.804;2022-12-10T05:51:13;1.30;99.90
33247;DHT22;19606;50.108;19.804;2022-12-10T05:53:40;0.80;99.90
33247;DHT22;19606;50.108;19.804;2022-12-10T05:56:11;2.10;99.90
33247;DHT22;19606;50.108;19.804;2022-12-10T05:58:38;1.00;99.90
33247;DHT22;19606;50.108;19.804;2022-12-10T06:01:10;1.00;99.90
33247;DHT22;19606;50.108;19.804;2022-12-10T06:03:36;1.10;99.90
33247;DHT22;19606;50.108;19.804;2022-12-10T06:06:02;1.20;99.90
33247;DHT22;19606;50.108;19.804;2022-12-10T06:08:28;1.00;99.90
33247;DHT22;19606;50.108;19.804;2022-12-10T06:10:54;2.40;99.90
33247;DHT22;19606;50.108;19.804;2022-12-10T06:13:21;1.50;99.90
33247;DHT22;19606;50.108;19.804;2022-12-10T06:15:47;1.10;99.90
33247;DHT22;19606;50.108;19.804;2022-12-10T06:18:12;1.90;99.90
33247;DHT22;19606;50.108;19.804;2022-12-10T06:20:39;1.20;99.90
33247;DHT22;19606;50.108;19.804;2022-12-10T06:23:05;1.00;99.90
33247;DHT22;19606;50.108;19.804;2022-12-10T06:25:30;1.80;99.90
33247;DHT22;19606;50.108;19.804;2022-12-10T06:27:56;1.70;99.90
33247;DHT22;19606;50.108;19.804;2022-12-10T06:30:22;1.30;99.90
33247;DHT22;19606;50.108;19.804;2022-12-10T06:32:47;1.20;99.90
33247;DHT22;19606;50.108;19.804;2022-12-10T06:35:13;1.10;99.90
33247;DHT22;19606;50.108;19.804;2022-12-10T06:37:38;1.40;99.90
33247;DHT22;19606;50.108;19.804;2022-12-10T06:40:05;1.70;99.90
33247;DHT22;19606;50.108;19.804;2022-12-10T06:42:31;1.10;99.90
33247;DHT22;19606;50.108;19.804;2022-12-10T06:44:56;1.30;99.90
33247;DHT22;19606;50.108;19.804;2022-12-10T06:47:22;1.30;99.90
33247;DHT22;19606;50.108;19.804;2022-12-10T06:49:48;1.40;99.90
33247;DHT22;19606;50.108;19.804;2022-12-10T06:52:14;1.20;99.90
33247;DHT22;19606;50.108;19.804;2022-12-10T06:54:39;1.60;99.90
33247;DHT22;19606;50.108;19.804;2022-12-10T06:57:05;1.30;99.90
33247;DHT22;19606;50.108;19.804;2022-12-10T06:59:32;1.50;99.90
33247;DHT22;19606;50.108;19.804;2022-12-10T07:01:58;1.10;99.90
33247;DHT22;19606;50.108;19.804;2022-12-10T07:04:24;1.30;99.90
33247;DHT22;19606;50.108;19.804;2022-12-10T07:06:50;1.20;99.90
33247;DHT22;19606;50.108;19.804;2022-12-10T07:09:16;1.30;99.90
33247;DHT22;19606;50.108;19.804;2022-12-10T07:11:42;1.60;99.90
33247;DHT22;19606;50.108;19.804;2022-12-10T07:14:10;1.30;99.90
33247;DHT22;19606;50.108;19.804;2022-12-10T07:16:38;1.80;99.90
33247;DHT22;19606;50.108;19.804;2022-12-10T07:19:03;1.10;99.90
33247;DHT22;19606;50.108;19.804;2022-12-10T07:21:34;1.30;99.90
33247;DHT22;19606;50.108;19.804;2022-12-10T07:24:06;1.30;99.90
33247;DHT22;19606;50.108;19.804;2022-12-10T07:26:37;1.10;99.90
33247;DHT22;19606;50.108;19.804;2022-12-10T07:29:05;1.20;99.90
33247;DHT22;19606;50.108;19.804;2022-12-10T07:31:31;1.20;99.90
33247;DHT22;19606;50.108;19.804;2022-12-10T07:33:58;1.50;99.90
33247;DHT22;19606;50.108;19.804;2022-12-10T07:36:24;1.70;99.90
33247;DHT22;19606;50.108;19.804;2022-12-10T07:38:52;1.30;99.90
33247;DHT22;19606;50.108;19.804;2022-12-10T07:41:18;1.40;99.90
33247;DHT22;19606;50.108;19.804;2022-12-10T07:43:45;1.80;99.90
33247;DHT22;19606;50.108;19.804;2022-12-10T07:46:23;1.70;99.90
33247;DHT22;19606;50.108;19.804;2022-12-10T07:48:50;1.50;99.90
33247;DHT22;19606;50.108;19.804;2022-12-10T07:51:18;1.30;99.90
33247;DHT22;19606;50.108;19.804;2022-12-10T07:53:44;1.50;99.90
33247;DHT22;19606;50.108;19.804;2022-12-10T07:56:10;1.30;99.90
33247;DHT22;19606;50.108;19.804;2022-12-10T07:58:35;1.40;99.90
33247;DHT22;19606;50.108;19.804;2022-12-10T08:01:09;2.30;99.90
33247;DHT22;19606;50.108;19.804;2022-12-10T08:03:35;2.30;99.90
33247;DHT22;19606;50.108;19.804;2022-12-10T08:06:12;1.80;99.90
33247;DHT22;19606;50.108;19.804;2022-12-10T08:08:39;1.50;99.90
33247;DHT22;19606;50.108;19.804;2022-12-10T08:11:06;1.50;99.90
33247;DHT22;19606;50.108;19.804;2022-12-10T08:13:32;1.50;99.90
33247;DHT22;19606;50.108;19.804;2022-12-10T08:16:03;1.60;99.90
33247;DHT22;19606;50.108;19.804;2022-12-10T08:18:30;1.40;99.90
33247;DHT22;19606;50.108;19.804;2022-12-10T08:20:56;1.40;99.90
33247;DHT22;19606;50.108;19.804;2022-12-10T08:23:22;1.60;99.90
33247;DHT22;19606;50.108;19.804;2022-12-10T08:25:47;1.70;99.90
33247;DHT22;19606;50.108;19.804;2022-12-10T08:28:13;1.90;99.90
33247;DHT22;19606;50.108;19.804;2022-12-10T08:30:39;1.60;99.90
33247;DHT22;19606;50.108;19.804;2022-12-10T08:33:04;2.10;99.90
33247;DHT22;19606;50.108;19.804;2022-12-10T08:35:30;2.50;99.90
33247;DHT22;19606;50.108;19.804;2022-12-10T08:37:56;1.50;99.90
33247;DHT22;19606;50.108;19.804;2022-12-10T08:40:21;1.60;99.90
33247;DHT22;19606;50.108;19.804;2022-12-10T08:42:47;1.60;99.90
33247;DHT22;19606;50.108;19.804;2022-12-10T08:45:13;1.60;99.90
33247;DHT22;19606;50.108;19.804;2022-12-10T08:47:38;2.00;99.90
33247;DHT22;19606;50.108;19.804;2022-12-10T08:50:04;1.80;99.90
33247;DHT22;19606;50.108;19.804;2022-12-10T08:52:30;1.60;99.90
33247;DHT22;19606;50.108;19.804;2022-12-10T08:54:55;2.00;99.90
33247;DHT22;19606;50.108;19.804;2022-12-10T08:57:21;1.90;99.90
33247;DHT22;19606;50.108;19.804;2022-12-10T08:59:47;1.90;99.90
33247;DHT22;19606;50.108;19.804;2022-12-10T09:02:12;1.90;99.90
33247;DHT22;19606;50.108;19.804;2022-12-10T09:04:38;1.70;99.90
33247;DHT22;19606;50.108;19.804;2022-12-10T09:07:04;1.90;99.90
33247;DHT22;19606;50.108;19.804;2022-12-10T09:09:31;2.00;99.90
33247;DHT22;19606;50.108;19.804;2022-12-10T09:11:57;2.60;99.90
33247;DHT22;19606;50.108;19.804;2022-12-10T09:14:23;2.20;99.90
33247;DHT22;19606;50.108;19.804;2022-12-10T09:16:49;2.20;99.90
33247;DHT22;19606;50.108;19.804;2022-12-10T09:19:15;2.40;99.90
33247;DHT22;19606;50.108;19.804;2022-12-10T09:21:41;2.30;99.90
33247;DHT22;19606;50.108;19.804;2022-12-10T09:24:07;1.20;99.90
33247;DHT22;19606;50.108;19.804;2022-12-10T09:26:33;2.20;99.90
33247;DHT22;19606;50.108;19.804;2022-12-10T09:28:58;2.40;99.90
33247;DHT22;19606;50.108;19.804;2022-12-10T09:31:25;2.00;99.90
33247;DHT22;19606;50.108;19.804;2022-12-10T09:33:52;2.20;99.90
33247;DHT22;19606;50.108;19.804;2022-12-10T09:36:19;2.30;99.90
33247;DHT22;19606;50.108;19.804;2022-12-10T09:38:45;2.50;99.90
33247;DHT22;19606;50.108;19.804;2022-12-10T09:46:58;2.60;99.90
33247;DHT22;19606;50.108;19.804;2022-12-10T09:52:33;2.70;99.90
33247;DHT22;19606;50.108;19.804;2022-12-10T09:55:40;2.70;99.90
33247;DHT22;19606;50.108;19.804;2022-12-10T09:58:22;2.60;99.90
33247;DHT22;19606;50.108;19.804;2022-12-10T10:01:01;2.60;99.90
33247;DHT22;19606;50.108;19.804;2022-12-10T10:03:31;2.60;99.90
33247;DHT22;19606;50.108;19.804;2022-12-10T10:05:57;2.70;99.90
33247;DHT22;19606;50.108;19.804;2022-12-10T10:08:34;2.80;99.90
33247;DHT22;19606;50.108;19.804;2022-12-10T10:11:03;2.60;99.90
33247;DHT22;19606;50.108;19.804;2022-12-10T10:13:40;2.50;99.90
33247;DHT22;19606;50.108;19.804;2022-12-10T10:16:20;2.70;99.90
33247;DHT22;19606;50.108;19.804;2022-12-10T10:19:03;2.40;99.90
33247;DHT22;19606;50.108;19.804;2022-12-10T10:21:37;2.40;99.90
33247;DHT22;19606;50.108;19.804;2022-12-10T10:24:04;2.80;99.90
33247;DHT22;19606;50.108;19.804;2022-12-10T10:26:32;2.40;99.90
33247;DHT22;19606;50.108;19.804;2022-12-10T10:29:04;2.50;99.90
33247;DHT22;19606;50.108;19.804;2022-12-10T10:31:32;2.30;99.90
33247;DHT22;19606;50.108;19.804;2022-12-10T10:34:04;2.40;99.90
33247;DHT22;19606;50.108;19.804;2022-12-10T10:36:35;2.70;99.90
33247;DHT22;19606;50.108;19.804;2022-12-10T10:41:44;2.40;99.90
33247;DHT22;19606;50.108;19.804;2022-12-10T10:44:16;2.70;99.90
33247;DHT22;19606;50.108;19.804;2022-12-10T10:46:42;2.60;99.90
33247;DHT22;19606;50.108;19.804;2022-12-10T10:49:31;2.90;99.90
33247;DHT22;19606;50.108;19.804;2022-12-10T10:52:05;2.50;99.90
33247;DHT22;19606;50.108;19.804;2022-12-10T10:54:34;2.70;99.90
33247;DHT22;19606;50.108;19.804;2022-12-10T10:59:49;2.50;99.90
33247;DHT22;19606;50.108;19.804;2022-12-10T11:04:50;2.80;99.90
33247;DHT22;19606;50.108;19.804;2022-12-10T11:09:53;2.30;99.90
33247;DHT22;19606;50.108;19.804;2022-12-10T11:12:36;2.60;99.90
33247;DHT22;19606;50.108;19.804;2022-12-10T11:17:54;2.20;99.90
33247;DHT22;19606;50.108;19.804;2022-12-10T11:20:27;2.20;99.90
33247;DHT22;19606;50.108;19.804;2022-12-10T11:22:56;2.30;99.90
33247;DHT22;19606;50.108;19.804;2022-12-10T11:30:53;2.20;99.90
33247;DHT22;19606;50.108;19.804;2022-12-10T11:33:47;2.30;99.90
33247;DHT22;19606;50.108;19.804;2022-12-10T11:44:37;2.00;99.90
33247;DHT22;19606;50.108;19.804;2022-12-10T11:52:50;1.90;99.90
33247;DHT22;19606;50.108;19.804;2022-12-10T11:58:32;1.80;99.90
33247;DHT22;19606;50.108;19.804;2022-12-10T12:06:29;1.90;99.90
33247;DHT22;19606;50.108;19.804;2022-12-10T12:09:23;1.80;99.90
33247;DHT22;19606;50.108;19.804;2022-12-10T12:14:40;1.80;99.90
33247;DHT22;19606;50.108;19.804;2022-12-10T12:19:44;1.90;99.90
33247;DHT22;19606;50.108;19.804;2022-12-10T12:22:27;2.10;99.90
33247;DHT22;19606;50.108;19.804;2022-12-10T12:25:15;1.70;99.90
33247;DHT22;19606;50.108;19.804;2022-12-10T12:27:55;2.00;99.90
33247;DHT22;19606;50.108;19.804;2022-12-10T12:30:22;1.80;99.90
33247;DHT22;19606;50.108;19.804;2022-12-10T12:35:42;1.70;99.90
33247;DHT22;19606;50.108;19.804;2022-12-10T12:38:28;2.60;99.90
33247;DHT22;19606;50.108;19.804;2022-12-10T12:43:58;1.80;99.90
33247;DHT22;19606;50.108;19.804;2022-12-10T12:46:37;1.70;99.90
33247;DHT22;19606;50.108;19.804;2022-12-10T12:51:48;1.60;99.90
33247;DHT22;19606;50.108;19.804;2022-12-10T12:54:15;1.70;99.90
33247;DHT22;19606;50.108;19.804;2022-12-10T13:02:21;1.50;99.90
33247;DHT22;19606;50.108;19.804;2022-12-10T13:04:48;1.40;99.90
33247;DHT22;19606;50.108;19.804;2022-12-10T13:09:52;1.60;99.90
33247;DHT22;19606;50.108;19.804;2022-12-10T13:12:50;1.50;99.90
33247;DHT22;19606;50.108;19.804;2022-12-10T13:18:36;1.40;99.90
33247;DHT22;19606;50.108;19.804;2022-12-10T13:21:19;1.40;99.90
33247;DHT22;19606;50.108;19.804;2022-12-10T13:24:04;1.40;99.90
33247;DHT22;19606;50.108;19.804;2022-12-10T13:26:31;1.50;99.90
33247;DHT22;19606;50.108;19.804;2022-12-10T13:29:25;1.60;99.90
33247;DHT22;19606;50.108;19.804;2022-12-10T13:32:03;1.60;99.90
33247;DHT22;19606;50.108;19.804;2022-12-10T13:34:32;1.40;99.90
33247;DHT22;19606;50.108;19.804;2022-12-10T13:49:57;1.40;99.90
33247;DHT22;19606;50.108;19.804;2022-12-10T14:08:38;1.30;99.90
33247;DHT22;19606;50.108;19.804;2022-12-10T14:11:13;1.30;99.90
33247;DHT22;19606;50.108;19.804;2022-12-10T14:13:46;1.20;99.90
33247;DHT22;19606;50.108;19.804;2022-12-10T14:16:14;1.40;99.90
33247;DHT22;19606;50.108;19.804;2022-12-10T14:18:56;1.20;99.90
33247;DHT22;19606;50.108;19.804;2022-12-10T14:21:23;1.30;99.90
33247;DHT22;19606;50.108;19.804;2022-12-10T14:23:50;1.50;99.90
33247;DHT22;19606;50.108;19.804;2022-12-10T14:26:18;1.30;99.90
33247;DHT22;19606;50.108;19.804;2022-12-10T14:28:48;1.60;99.90
33247;DHT22;19606;50.108;19.804;2022-12-10T14:31:20;1.40;99.90
33247;DHT22;19606;50.108;19.804;2022-12-10T14:33:48;1.20;99.90
33247;DHT22;19606;50.108;19.804;2022-12-10T14:36:22;1.40;99.90
33247;DHT22;19606;50.108;19.804;2022-12-10T14:38:49;1.20;99.90
33247;DHT22;19606;50.108;19.804;2022-12-10T14:41:18;2.00;99.90
33247;DHT22;19606;50.108;19.804;2022-12-10T14:43:46;1.10;99.90
33247;DHT22;19606;50.108;19.804;2022-12-10T14:46:28;1.50;99.90
33247;DHT22;19606;50.108;19.804;2022-12-10T14:48:55;1.20;99.90
33247;DHT22;19606;50.108;19.804;2022-12-10T14:51:30;1.30;99.90
33247;DHT22;19606;50.108;19.804;2022-12-10T14:53:56;1.20;99.90
33247;DHT22;19606;50.108;19.804;2022-12-10T14:56:30;1.20;99.90
33247;DHT22;19606;50.108;19.804;2022-12-10T15:01:34;1.40;99.90
33247;DHT22;19606;50.108;19.804;2022-12-10T15:04:03;1.80;99.90
33247;DHT22;19606;50.108;19.804;2022-12-10T15:06:34;1.20;99.90
33247;DHT22;19606;50.108;19.804;2022-12-10T15:09:00;1.40;99.90
33247;DHT22;19606;50.108;19.804;2022-12-10T15:11:27;1.30;99.90
33247;DHT22;19606;50.108;19.804;2022-12-10T15:13:57;1.40;99.90
33247;DHT22;19606;50.108;19.804;2022-12-10T15:16:37;1.50;99.90
33247;DHT22;19606;50.108;19.804;2022-12-10T15:19:16;1.20;99.90
33247;DHT22;19606;50.108;19.804;2022-12-10T15:21:43;1.20;99.90
33247;DHT22;19606;50.108;19.804;2022-12-10T15:26:43;1.10;99.90
33247;DHT22;19606;50.108;19.804;2022-12-10T15:31:48;1.80;99.90
33247;DHT22;19606;50.108;19.804;2022-12-10T15:34:15;1.40;99.90
33247;DHT22;19606;50.108;19.804;2022-12-10T15:36:48;1.20;99.90
33247;DHT22;19606;50.108;19.804;2022-12-10T15:39:19;1.60;99.90
33247;DHT22;19606;50.108;19.804;2022-12-10T15:41:47;1.40;99.90
33247;DHT22;19606;50.108;19.804;2022-12-10T15:47:36;1.10;99.90
33247;DHT22;19606;50.108;19.804;2022-12-10T15:50:04;1.30;99.90
33247;DHT22;19606;50.108;19.804;2022-12-10T15:52:31;1.10;99.90
33247;DHT22;19606;50.108;19.804;2022-12-10T15:55:00;1.50;99.90
33247;DHT22;19606;50.108;19.804;2022-12-10T15:57:32;1.10;99.90
33247;DHT22;19606;50.108;19.804;2022-12-10T16:00:00;1.30;99.90
33247;DHT22;19606;50.108;19.804;2022-12-10T16:05:01;1.10;99.90
33247;DHT22;19606;50.108;19.804;2022-12-10T16:07:27;1.70;99.90
33247;DHT22;19606;50.108;19.804;2022-12-10T16:09:52;1.20;99.90
33247;DHT22;19606;50.108;19.804;2022-12-10T16:12:18;1.30;99.90
33247;DHT22;19606;50.108;19.804;2022-12-10T16:14:51;1.20;99.90
33247;DHT22;19606;50.108;19.804;2022-12-10T16:17:18;1.10;99.90
33247;DHT22;19606;50.108;19.804;2022-12-10T16:19:44;1.20;99.90
33247;DHT22;19606;50.108;19.804;2022-12-10T16:22:10;1.20;99.90
33247;DHT22;19606;50.108;19.804;2022-12-10T16:24:36;1.00;99.90
33247;DHT22;19606;50.108;19.804;2022-12-10T16:27:04;1.10;99.90
33247;DHT22;19606;50.108;19.804;2022-12-10T16:29:30;1.20;99.90
33247;DHT22;19606;50.108;19.804;2022-12-10T16:31:55;1.30;99.90
33247;DHT22;19606;50.108;19.804;2022-12-10T16:34:21;1.00;99.90
33247;DHT22;19606;50.108;19.804;2022-12-10T16:36:46;1.70;99.90
33247;DHT22;19606;50.108;19.804;2022-12-10T16:39:12;1.20;99.90
33247;DHT22;19606;50.108;19.804;2022-12-10T16:41:39;1.40;99.90
33247;DHT22;19606;50.108;19.804;2022-12-10T16:44:05;1.40;99.90
33247;DHT22;19606;50.108;19.804;2022-12-10T16:46:30;2.10;99.90
33247;DHT22;19606;50.108;19.804;2022-12-10T16:48:56;1.00;99.90
33247;DHT22;19606;50.108;19.804;2022-12-10T16:51:26;1.30;99.90
33247;DHT22;19606;50.108;19.804;2022-12-10T16:53:54;1.50;99.90
33247;DHT22;19606;50.108;19.804;2022-12-10T16:56:20;1.00;99.90
33247;DHT22;19606;50.108;19.804;2022-12-10T16:58:45;1.00;99.90
33247;DHT22;19606;50.108;19.804;2022-12-10T17:01:28;1.70;99.90
33247;DHT22;19606;50.108;19.804;2022-12-10T17:03:54;1.00;99.90
33247;DHT22;19606;50.108;19.804;2022-12-10T17:06:20;1.70;99.90
33247;DHT22;19606;50.108;19.804;2022-12-10T17:08:47;1.80;99.90
33247;DHT22;19606;50.108;19.804;2022-12-10T17:11:20;1.20;99.90
33247;DHT22;19606;50.108;19.804;2022-12-10T17:14:06;1.10;99.90
33247;DHT22;19606;50.108;19.804;2022-12-10T17:16:35;1.20;99.90
33247;DHT22;19606;50.108;19.804;2022-12-10T17:19:00;1.10;99.90
33247;DHT22;19606;50.108;19.804;2022-12-10T17:21:26;1.20;99.90
33247;DHT22;19606;50.108;19.804;2022-12-10T17:23:52;1.30;99.90
33247;DHT22;19606;50.108;19.804;2022-12-10T17:26:27;1.10;99.90
33247;DHT22;19606;50.108;19.804;2022-12-10T17:28:56;1.30;99.90
33247;DHT22;19606;50.108;19.804;2022-12-10T17:31:25;1.60;99.90
33247;DHT22;19606;50.108;19.804;2022-12-10T17:33:51;1.10;99.90
33247;DHT22;19606;50.108;19.804;2022-12-10T17:36:16;1.10;99.90
33247;DHT22;19606;50.108;19.804;2022-12-10T17:38:42;1.20;99.90
33247;DHT22;19606;50.108;19.804;2022-12-10T17:41:09;1.60;99.90
33247;DHT22;19606;50.108;19.804;2022-12-10T17:43:36;1.10;99.90
33247;DHT22;19606;50.108;19.804;2022-12-10T17:46:02;1.60;99.90
33247;DHT22;19606;50.108;19.804;2022-12-10T17:48:28;1.10;99.90
33247;DHT22;19606;50.108;19.804;2022-12-10T17:50:54;1.60;99.90
33247;DHT22;19606;50.108;19.804;2022-12-10T17:53:19;1.20;99.90
33247;DHT22;19606;50.108;19.804;2022-12-10T17:55:50;1.20;99.90
33247;DHT22;19606;50.108;19.804;2022-12-10T17:58:17;1.30;99.90
33247;DHT22;19606;50.108;19.804;2022-12-10T18:00:46;1.10;99.90
33247;DHT22;19606;50.108;19.804;2022-12-10T18:03:11;1.20;99.90
33247;DHT22;19606;50.108;19.804;2022-12-10T18:05:38;2.20;99.90